sensor_id;sensor_type;location;lat;lon;timestamp;pressure;altitude;pressure_sealevel;temperature;humidity
51081;BME280;37130;55.670;37.596;2022-10-16T00:02:25;100713.72;;;5.15;67.22
51081;BME280;37130;55.670;37.596;2022-10-16T00:04:52;100719.88;;;5.14;67.53
51081;BME280;37130;55.670;37.596;2022-10-16T00:07:21;100722.50;;;5.13;67.69
51081;BME280;37130;55.670;37.596;2022-10-16T00:09:48;100733.91;;;5.12;67.02
51081;BME280;37130;55.670;37.596;2022-10-16T00:12:15;100727.78;;;5.10;67.63
51081;BME280;37130;55.670;37.596;2022-10-16T00:14:42;100728.69;;;5.09;67.43
51081;BME280;37130;55.670;37.596;2022-10-16T00:17:10;100727.78;;;5.10;67.52
51081;BME280;37130;55.670;37.596;2022-10-16T00:19:37;100733.03;;;5.11;67.88
51081;BME280;37130;55.670;37.596;2022-10-16T00:22:04;100731.28;;;5.12;67.81
51081;BME280;37130;55.670;37.596;2022-10-16T00:24:48;100735.69;;;5.05;67.26
51081;BME280;37130;55.670;37.596;2022-10-16T00:27:15;100731.28;;;5.05;67.54
51081;BME280;37130;55.670;37.596;2022-10-16T00:29:43;100728.69;;;5.04;68.00
51081;BME280;37130;55.670;37.596;2022-10-16T00:32:10;100725.22;;;5.03;67.72
51081;BME280;37130;55.670;37.596;2022-10-16T00:34:37;100734.81;;;5.04;67.79
51081;BME280;37130;55.670;37.596;2022-10-16T00:37:06;100732.19;;;5.03;67.93
51081;BME280;37130;55.670;37.596;2022-10-16T00:39:33;100734.81;;;5.03;67.99
51081;BME280;37130;55.670;37.596;2022-10-16T00:42:00;100734.88;;;4.98;67.81
51081;BME280;37130;55.670;37.596;2022-10-16T00:47:17;100740.13;;;4.92;68.17
51081;BME280;37130;55.670;37.596;2022-10-16T00:49:46;100732.25;;;4.92;67.97
51081;BME280;37130;55.670;37.596;2022-10-16T00:52:14;100731.41;;;4.90;67.96
51081;BME280;37130;55.670;37.596;2022-10-16T00:54:41;100738.41;;;4.90;67.79
51081;BME280;37130;55.670;37.596;2022-10-16T00:57:09;100741.03;;;4.90;67.81
51081;BME280;37130;55.670;37.596;2022-10-16T00:59:37;100739.28;;;4.89;67.77
51081;BME280;37130;55.670;37.596;2022-10-16T01:02:05;100747.16;;;4.87;68.06
51081;BME280;37130;55.670;37.596;2022-10-16T01:04:43;100750.69;;;4.83;68.31
51081;BME280;37130;55.670;37.596;2022-10-16T01:12:40;100749.84;;;4.82;68.42
51081;BME280;37130;55.670;37.596;2022-10-16T01:17:48;100752.47;;;4.78;68.60
51081;BME280;37130;55.670;37.596;2022-10-16T01:25:18;100754.28;;;4.70;68.47
51081;BME280;37130;55.670;37.596;2022-10-16T01:27:49;100762.13;;;4.68;68.31
51081;BME280;37130;55.670;37.596;2022-10-16T01:30:18;100760.38;;;4.69;68.57
51081;BME280;37130;55.670;37.596;2022-10-16T01:35:18;100763.03;;;4.67;68.50
51081;BME280;37130;55.670;37.596;2022-10-16T01:40:16;100769.13;;;4.66;68.88
51081;BME280;37130;55.670;37.596;2022-10-16T01:42:52;100765.66;;;4.66;68.51
51081;BME280;37130;55.670;37.596;2022-10-16T01:45:20;100764.78;;;4.65;68.64
51081;BME280;37130;55.670;37.596;2022-10-16T01:47:48;100762.16;;;4.64;68.91
51081;BME280;37130;55.670;37.596;2022-10-16T01:50:16;100765.69;;;4.64;68.80
51081;BME280;37130;55.670;37.596;2022-10-16T01:52:45;100766.53;;;4.65;68.71
51081;BME280;37130;55.670;37.596;2022-10-16T01:55:16;100770.03;;;4.60;68.86
51081;BME280;37130;55.670;37.596;2022-10-16T01:57:44;100771.81;;;4.58;69.08
51081;BME280;37130;55.670;37.596;2022-10-16T02:00:12;100774.44;;;4.58;68.90
51081;BME280;37130;55.670;37.596;2022-10-16T02:02:41;100770.94;;;4.58;69.16
51081;BME280;37130;55.670;37.596;2022-10-16T02:05:15;100771.81;;;4.57;69.18
51081;BME280;37130;55.670;37.596;2022-10-16T02:07:45;100782.34;;;4.54;69.17
51081;BME280;37130;55.670;37.596;2022-10-16T02:10:12;100775.34;;;4.51;69.17
51081;BME280;37130;55.670;37.596;2022-10-16T02:12:40;100775.31;;;4.53;69.28
51081;BME280;37130;55.670;37.596;2022-10-16T02:15:09;100777.94;;;4.54;69.21
51081;BME280;37130;55.670;37.596;2022-10-16T02:17:36;100773.59;;;4.53;69.27
51081;BME280;37130;55.670;37.596;2022-10-16T02:20:03;100775.34;;;4.51;69.52
51081;BME280;37130;55.670;37.596;2022-10-16T02:22:35;100776.22;;;4.47;69.42
51081;BME280;37130;55.670;37.596;2022-10-16T02:27:34;100776.25;;;4.44;69.63
51081;BME280;37130;55.670;37.596;2022-10-16T02:30:06;100778.00;;;4.44;69.33
51081;BME280;37130;55.670;37.596;2022-10-16T02:32:35;100778.00;;;4.44;69.54
51081;BME280;37130;55.670;37.596;2022-10-16T02:35:04;100777.13;;;4.40;69.43
51081;BME280;37130;55.670;37.596;2022-10-16T02:37:31;100779.75;;;4.37;69.63
51081;BME280;37130;55.670;37.596;2022-10-16T02:39:59;100783.25;;;4.34;69.22
51081;BME280;37130;55.670;37.596;2022-10-16T02:42:27;100776.28;;;4.33;69.43
51081;BME280;37130;55.670;37.596;2022-10-16T02:44:55;100778.91;;;4.32;69.45
51081;BME280;37130;55.670;37.596;2022-10-16T02:47:22;100787.66;;;4.31;69.41
51081;BME280;37130;55.670;37.596;2022-10-16T02:49:49;100794.63;;;4.29;69.15
51081;BME280;37130;55.670;37.596;2022-10-16T02:52:16;100791.13;;;4.27;69.25
51081;BME280;37130;55.670;37.596;2022-10-16T02:54:42;100779.81;;;4.25;69.13
51081;BME280;37130;55.670;37.596;2022-10-16T02:57:10;100779.81;;;4.23;69.32
51081;BME280;37130;55.670;37.596;2022-10-16T02:59:38;100785.03;;;4.23;69.07
51081;BME280;37130;55.670;37.596;2022-10-16T03:02:05;100784.16;;;4.21;69.19
51081;BME280;37130;55.670;37.596;2022-10-16T03:04:32;100786.81;;;4.18;69.10
51081;BME280;37130;55.670;37.596;2022-10-16T03:06:59;100791.16;;;4.16;69.06
51081;BME280;37130;55.670;37.596;2022-10-16T03:09:26;100790.31;;;4.15;69.29
51081;BME280;37130;55.670;37.596;2022-10-16T03:11:53;100786.81;;;4.15;69.03
51081;BME280;37130;55.670;37.596;2022-10-16T03:14:20;100796.41;;;4.16;69.39
51081;BME280;37130;55.670;37.596;2022-10-16T03:16:47;100796.41;;;4.16;69.38
51081;BME280;37130;55.670;37.596;2022-10-16T03:19:16;100799.94;;;4.10;69.14
51081;BME280;37130;55.670;37.596;2022-10-16T03:21:44;100800.81;;;4.09;69.23
51081;BME280;37130;55.670;37.596;2022-10-16T03:24:11;100800.81;;;4.08;69.27
51081;BME280;37130;55.670;37.596;2022-10-16T03:26:38;100796.44;;;4.05;69.21
51081;BME280;37130;55.670;37.596;2022-10-16T03:29:05;100803.44;;;4.03;69.37
51081;BME280;37130;55.670;37.596;2022-10-16T03:31:33;100809.56;;;4.02;69.32
51081;BME280;37130;55.670;37.596;2022-10-16T03:34:00;100813.91;;;4.00;69.05
51081;BME280;37130;55.670;37.596;2022-10-16T03:36:27;100810.41;;;3.98;69.35
51081;BME280;37130;55.670;37.596;2022-10-16T03:38:54;100814.78;;;3.98;69.34
51081;BME280;37130;55.670;37.596;2022-10-16T03:41:21;100812.16;;;4.01;69.20
51081;BME280;37130;55.670;37.596;2022-10-16T03:43:48;100812.16;;;4.01;69.29
51081;BME280;37130;55.670;37.596;2022-10-16T03:46:15;100811.31;;;3.99;69.26
51081;BME280;37130;55.670;37.596;2022-10-16T03:48:42;100815.69;;;3.97;69.27
51081;BME280;37130;55.670;37.596;2022-10-16T03:51:09;100806.94;;;3.94;69.28
51081;BME280;37130;55.670;37.596;2022-10-16T03:53:36;100814.81;;;3.94;69.34
51081;BME280;37130;55.670;37.596;2022-10-16T03:56:03;100818.31;;;3.93;69.40
51081;BME280;37130;55.670;37.596;2022-10-16T03:58:30;100814.81;;;3.93;69.45
51081;BME280;37130;55.670;37.596;2022-10-16T04:00:57;100814.81;;;3.90;69.37
51081;BME280;37130;55.670;37.596;2022-10-16T04:03:24;100810.44;;;3.92;69.69
51081;BME280;37130;55.670;37.596;2022-10-16T04:05:51;100816.53;;;3.95;69.49
51081;BME280;37130;55.670;37.596;2022-10-16T04:08:18;100823.53;;;3.98;69.63
51081;BME280;37130;55.670;37.596;2022-10-16T04:10:45;100814.78;;;4.01;69.46
51081;BME280;37130;55.670;37.596;2022-10-16T04:13:12;100811.31;;;4.02;69.38
51081;BME280;37130;55.670;37.596;2022-10-16T04:15:39;100815.69;;;4.04;69.61
51081;BME280;37130;55.670;37.596;2022-10-16T04:18:06;100814.81;;;4.07;70.18
51081;BME280;37130;55.670;37.596;2022-10-16T04:20:33;100812.19;;;4.07;69.55
51081;BME280;37130;55.670;37.596;2022-10-16T04:23:00;100806.94;;;4.07;69.57
51081;BME280;37130;55.670;37.596;2022-10-16T04:25:27;100814.78;;;4.08;69.51
51081;BME280;37130;55.670;37.596;2022-10-16T04:27:54;100813.91;;;4.08;69.40
51081;BME280;37130;55.670;37.596;2022-10-16T04:30:22;100820.91;;;4.07;69.26
51081;BME280;37130;55.670;37.596;2022-10-16T04:32:50;100824.38;;;4.11;69.25
51081;BME280;37130;55.670;37.596;2022-10-16T04:35:18;100817.41;;;4.14;69.26
51081;BME280;37130;55.670;37.596;2022-10-16T04:37:45;100822.66;;;4.17;69.29
51081;BME280;37130;55.670;37.596;2022-10-16T04:40:12;100826.13;;;4.23;69.22
51081;BME280;37130;55.670;37.596;2022-10-16T04:42:41;100826.13;;;4.27;69.25
51081;BME280;37130;55.670;37.596;2022-10-16T04:45:08;100826.13;;;4.30;69.24
51081;BME280;37130;55.670;37.596;2022-10-16T04:47:40;100826.13;;;4.35;69.22
51081;BME280;37130;55.670;37.596;2022-10-16T04:50:07;100840.06;;;4.43;69.20
51081;BME280;37130;55.670;37.596;2022-10-16T04:52:34;100828.69;;;4.49;68.93
51081;BME280;37130;55.670;37.596;2022-10-16T04:55:01;100833.03;;;4.57;68.87
51081;BME280;37130;55.670;37.596;2022-10-16T04:57:29;100834.66;;;4.86;68.73
51081;BME280;37130;55.670;37.596;2022-10-16T04:59:56;100833.75;;;4.96;68.26
51081;BME280;37130;55.670;37.596;2022-10-16T05:02:24;100834.59;;;5.06;68.90
51081;BME280;37130;55.670;37.596;2022-10-16T05:04:51;100836.09;;;5.44;68.03
51081;BME280;37130;55.670;37.596;2022-10-16T05:07:18;100831.97;;;6.23;67.84
51081;BME280;37130;55.670;37.596;2022-10-16T05:09:45;100831.75;;;6.43;67.58
51081;BME280;37130;55.670;37.596;2022-10-16T05:12:12;100832.72;;;6.36;68.15
51081;BME280;37130;55.670;37.596;2022-10-16T05:14:39;100828.44;;;6.26;68.25
51081;BME280;37130;55.670;37.596;2022-10-16T05:17:06;100837.31;;;6.14;67.67
51081;BME280;37130;55.670;37.596;2022-10-16T05:19:33;100830.38;;;6.07;67.95
51081;BME280;37130;55.670;37.596;2022-10-16T05:22:00;100829.50;;;6.06;68.23
51081;BME280;37130;55.670;37.596;2022-10-16T05:24:27;100835.63;;;6.07;67.37
51081;BME280;37130;55.670;37.596;2022-10-16T05:26:54;100843.56;;;6.05;67.20
51081;BME280;37130;55.670;37.596;2022-10-16T05:29:21;100843.53;;;6.08;67.52
51081;BME280;37130;55.670;37.596;2022-10-16T05:31:52;100845.22;;;6.14;67.17
51081;BME280;37130;55.670;37.596;2022-10-16T05:34:20;100844.09;;;6.36;66.80
51081;BME280;37130;55.670;37.596;2022-10-16T05:36:47;100845.47;;;6.73;66.88
51081;BME280;37130;55.670;37.596;2022-10-16T05:39:15;100839.09;;;8.10;65.31
51081;BME280;37130;55.670;37.596;2022-10-16T05:41:42;100841.69;;;10.82;61.79
51081;BME280;37130;55.670;37.596;2022-10-16T05:44:09;100842.06;;;13.34;58.19
51081;BME280;37130;55.670;37.596;2022-10-16T05:46:36;100843.00;;;15.21;56.14
51081;BME280;37130;55.670;37.596;2022-10-16T05:49:03;100847.69;;;16.77;54.77
51081;BME280;37130;55.670;37.596;2022-10-16T05:51:30;100856.16;;;18.13;53.74
51081;BME280;37130;55.670;37.596;2022-10-16T05:53:57;100864.56;;;19.25;52.87
51081;BME280;37130;55.670;37.596;2022-10-16T05:56:24;100871.16;;;20.17;52.22
51081;BME280;37130;55.670;37.596;2022-10-16T05:58:51;100869.13;;;20.86;51.63
51081;BME280;37130;55.670;37.596;2022-10-16T06:01:18;100876.88;;;21.65;51.08
51081;BME280;37130;55.670;37.596;2022-10-16T06:03:47;100877.22;;;22.22;50.48
51081;BME280;37130;55.670;37.596;2022-10-16T06:06:16;100881.50;;;22.60;50.43
51081;BME280;37130;55.670;37.596;2022-10-16T06:08:43;100880.84;;;23.03;50.09
51081;BME280;37130;55.670;37.596;2022-10-16T06:11:12;100884.44;;;23.48;49.53
51081;BME280;37130;55.670;37.596;2022-10-16T06:13:40;100878.38;;;23.78;48.95
51081;BME280;37130;55.670;37.596;2022-10-16T06:16:10;100886.53;;;24.11;48.53
51081;BME280;37130;55.670;37.596;2022-10-16T06:18:37;100891.72;;;24.35;48.18
51081;BME280;37130;55.670;37.596;2022-10-16T06:21:08;100883.56;;;24.46;47.85
51081;BME280;37130;55.670;37.596;2022-10-16T06:23:35;100888.13;;;24.66;46.86
51081;BME280;37130;55.670;37.596;2022-10-16T06:26:09;100879.75;;;24.05;47.03
51081;BME280;37130;55.670;37.596;2022-10-16T06:28:37;100875.38;;;23.93;46.84
51081;BME280;37130;55.670;37.596;2022-10-16T06:31:04;100884.03;;;24.51;45.83
51081;BME280;37130;55.670;37.596;2022-10-16T06:33:34;100878.28;;;25.17;44.65
51081;BME280;37130;55.670;37.596;2022-10-16T06:36:05;100887.63;;;25.74;43.84
51081;BME280;37130;55.670;37.596;2022-10-16T06:38:33;100888.69;;;26.22;43.18
51081;BME280;37130;55.670;37.596;2022-10-16T06:41:00;100897.13;;;26.48;42.02
51081;BME280;37130;55.670;37.596;2022-10-16T06:43:28;100891.44;;;26.61;42.59
51081;BME280;37130;55.670;37.596;2022-10-16T06:45:59;100891.06;;;26.93;42.02
51081;BME280;37130;55.670;37.596;2022-10-16T06:48:26;100891.31;;;27.09;41.66
51081;BME280;37130;55.670;37.596;2022-10-16T06:50:57;100898.53;;;27.38;41.25
51081;BME280;37130;55.670;37.596;2022-10-16T06:53:24;100902.59;;;27.80;40.63
51081;BME280;37130;55.670;37.596;2022-10-16T06:55:51;100900.88;;;28.06;40.30
51081;BME280;37130;55.670;37.596;2022-10-16T06:58:18;100900.34;;;28.21;39.78
51081;BME280;37130;55.670;37.596;2022-10-16T07:00:46;100906.41;;;28.50;39.29
51081;BME280;37130;55.670;37.596;2022-10-16T07:03:13;100905.53;;;28.68;38.38
51081;BME280;37130;55.670;37.596;2022-10-16T07:05:41;100908.91;;;28.61;37.74
51081;BME280;37130;55.670;37.596;2022-10-16T07:08:09;100910.06;;;28.77;37.33
51081;BME280;37130;55.670;37.596;2022-10-16T07:10:36;100917.34;;;28.76;37.54
51081;BME280;37130;55.670;37.596;2022-10-16T07:13:03;100916.56;;;28.84;37.02
51081;BME280;37130;55.670;37.596;2022-10-16T07:15:30;100904.97;;;28.82;36.53
51081;BME280;37130;55.670;37.596;2022-10-16T07:17:57;100909.34;;;29.01;36.49
51081;BME280;37130;55.670;37.596;2022-10-16T07:20:24;100909.47;;;29.17;36.34
51081;BME280;37130;55.670;37.596;2022-10-16T07:22:51;100914.34;;;29.66;35.83
51081;BME280;37130;55.670;37.596;2022-10-16T07:25:18;100915.75;;;29.86;35.73
51081;BME280;37130;55.670;37.596;2022-10-16T07:27:45;100910.16;;;30.04;34.84
51081;BME280;37130;55.670;37.596;2022-10-16T07:30:13;100909.69;;;30.09;34.61
51081;BME280;37130;55.670;37.596;2022-10-16T07:32:40;100914.34;;;30.25;34.37
51081;BME280;37130;55.670;37.596;2022-10-16T07:35:07;100915.78;;;29.95;34.20
51081;BME280;37130;55.670;37.596;2022-10-16T07:37:34;100915.50;;;29.03;34.48
51081;BME280;37130;55.670;37.596;2022-10-16T07:40:01;100912.75;;;27.87;35.51
51081;BME280;37130;55.670;37.596;2022-10-16T07:42:28;100906.09;;;25.40;39.18
51081;BME280;37130;55.670;37.596;2022-10-16T07:44:56;100908.63;;;23.16;43.13
51081;BME280;37130;55.670;37.596;2022-10-16T07:47:23;100906.06;;;21.48;45.79
51081;BME280;37130;55.670;37.596;2022-10-16T07:49:50;100906.06;;;20.31;46.23
51081;BME280;37130;55.670;37.596;2022-10-16T07:52:17;100902.63;;;19.46;46.31
51081;BME280;37130;55.670;37.596;2022-10-16T07:54:44;100903.28;;;18.78;46.06
51081;BME280;37130;55.670;37.596;2022-10-16T07:57:11;100896.81;;;18.06;45.23
51081;BME280;37130;55.670;37.596;2022-10-16T07:59:38;100907.81;;;17.69;44.53
51081;BME280;37130;55.670;37.596;2022-10-16T08:02:06;100903.53;;;17.34;43.98
51081;BME280;37130;55.670;37.596;2022-10-16T08:04:34;100900.34;;;16.94;44.49
51081;BME280;37130;55.670;37.596;2022-10-16T08:07:01;100908.13;;;16.63;44.35
51081;BME280;37130;55.670;37.596;2022-10-16T08:09:28;100917.63;;;16.34;44.09
51081;BME280;37130;55.670;37.596;2022-10-16T08:11:55;100907.09;;;16.14;44.30
51081;BME280;37130;55.670;37.596;2022-10-16T08:14:27;100906.19;;;15.96;44.46
51081;BME280;37130;55.670;37.596;2022-10-16T08:16:54;100908.28;;;15.51;44.80
51081;BME280;37130;55.670;37.596;2022-10-16T08:19:22;100895.66;;;15.36;44.64
51081;BME280;37130;55.670;37.596;2022-10-16T08:21:48;100899.34;;;15.15;44.11
51081;BME280;37130;55.670;37.596;2022-10-16T08:24:15;100901.03;;;14.97;44.14
51081;BME280;37130;55.670;37.596;2022-10-16T08:26:42;100895.84;;;14.94;43.98
51081;BME280;37130;55.670;37.596;2022-10-16T08:29:10;100892.56;;;14.66;43.41
51081;BME280;37130;55.670;37.596;2022-10-16T08:31:37;100897.09;;;14.44;43.65
51081;BME280;37130;55.670;37.596;2022-10-16T08:34:04;100898.31;;;14.35;44.18
51081;BME280;37130;55.670;37.596;2022-10-16T08:36:31;100893.88;;;14.36;44.19
51081;BME280;37130;55.670;37.596;2022-10-16T08:38:58;100894.88;;;14.33;43.96
51081;BME280;37130;55.670;37.596;2022-10-16T08:46:37;100887.84;;;14.10;44.24
51081;BME280;37130;55.670;37.596;2022-10-16T08:49:11;100892.72;;;13.99;44.08
51081;BME280;37130;55.670;37.596;2022-10-16T08:51:40;100895.06;;;14.07;44.59
51081;BME280;37130;55.670;37.596;2022-10-16T08:56:40;100892.94;;;13.94;44.38
51081;BME280;37130;55.670;37.596;2022-10-16T08:59:09;100880.34;;;13.98;44.34
51081;BME280;37130;55.670;37.596;2022-10-16T09:01:41;100885.81;;;13.95;44.21
51081;BME280;37130;55.670;37.596;2022-10-16T09:06:55;100893.16;;;13.88;44.65
51081;BME280;37130;55.670;37.596;2022-10-16T09:12:19;100895.41;;;13.55;44.71
51081;BME280;37130;55.670;37.596;2022-10-16T09:17:27;100887.03;;;13.42;44.83
51081;BME280;37130;55.670;37.596;2022-10-16T09:20:20;100882.69;;;13.40;44.69
51081;BME280;37130;55.670;37.596;2022-10-16T09:22:44;100883.59;;;13.38;45.22
51081;BME280;37130;55.670;37.596;2022-10-16T09:25:16;100882.72;;;13.38;45.36
51081;BME280;37130;55.670;37.596;2022-10-16T09:27:44;100874.81;;;13.36;45.44
51081;BME280;37130;55.670;37.596;2022-10-16T09:30:16;100882.84;;;13.35;45.48
51081;BME280;37130;55.670;37.596;2022-10-16T09:32:44;100882.13;;;13.31;45.01
51081;BME280;37130;55.670;37.596;2022-10-16T09:35:14;100877.81;;;13.27;44.86
51081;BME280;37130;55.670;37.596;2022-10-16T09:37:42;100885.19;;;13.19;44.92
51081;BME280;37130;55.670;37.596;2022-10-16T09:40:12;100875.50;;;13.18;45.45
51081;BME280;37130;55.670;37.596;2022-10-16T09:42:39;100878.84;;;13.23;44.91
51081;BME280;37130;55.670;37.596;2022-10-16T09:45:19;100880.63;;;13.23;45.03
51081;BME280;37130;55.670;37.596;2022-10-16T09:47:47;100868.28;;;13.20;45.09
51081;BME280;37130;55.670;37.596;2022-10-16T09:50:22;100878.94;;;13.20;44.83
51081;BME280;37130;55.670;37.596;2022-10-16T09:52:49;100873.81;;;13.15;45.44
51081;BME280;37130;55.670;37.596;2022-10-16T09:55:19;100871.25;;;13.12;44.92
51081;BME280;37130;55.670;37.596;2022-10-16T09:57:52;100868.91;;;13.05;45.02
51081;BME280;37130;55.670;37.596;2022-10-16T10:00:20;100873.34;;;13.04;44.92
51081;BME280;37130;55.670;37.596;2022-10-16T10:02:48;100874.25;;;13.03;45.14
51081;BME280;37130;55.670;37.596;2022-10-16T10:08:14;100868.38;;;12.95;45.09
51081;BME280;37130;55.670;37.596;2022-10-16T10:10:44;100866.03;;;12.86;45.26
51081;BME280;37130;55.670;37.596;2022-10-16T10:13:21;100861.06;;;12.77;45.32
51081;BME280;37130;55.670;37.596;2022-10-16T10:15:49;100854.19;;;12.71;45.27
51081;BME280;37130;55.670;37.596;2022-10-16T10:18:18;100861.19;;;12.74;45.48
51081;BME280;37130;55.670;37.596;2022-10-16T10:20:46;100856.50;;;12.80;45.31
51081;BME280;37130;55.670;37.596;2022-10-16T10:23:24;100858.41;;;12.77;45.24
51081;BME280;37130;55.670;37.596;2022-10-16T10:31:15;100852.31;;;12.73;45.43
51081;BME280;37130;55.670;37.596;2022-10-16T10:33:48;100850.59;;;12.72;45.53
51081;BME280;37130;55.670;37.596;2022-10-16T10:51:55;100852.81;;;12.59;45.83
51081;BME280;37130;55.670;37.596;2022-10-16T10:54:29;100844.00;;;12.59;45.87
51081;BME280;37130;55.670;37.596;2022-10-16T10:57:12;100842.34;;;12.55;45.95
51081;BME280;37130;55.670;37.596;2022-10-16T11:07:47;100834.94;;;12.64;46.32
51081;BME280;37130;55.670;37.596;2022-10-16T11:10:20;100833.09;;;12.66;46.32
51081;BME280;37130;55.670;37.596;2022-10-16T11:12:57;100836.69;;;12.65;46.53
51081;BME280;37130;55.670;37.596;2022-10-16T11:15:30;100840.13;;;12.67;46.45
51081;BME280;37130;55.670;37.596;2022-10-16T11:20:26;100842.16;;;12.36;46.19
51081;BME280;37130;55.670;37.596;2022-10-16T11:25:46;100832.66;;;12.28;46.33
51081;BME280;37130;55.670;37.596;2022-10-16T11:31:00;100827.19;;;12.33;46.39
51081;BME280;37130;55.670;37.596;2022-10-16T11:38:47;100819.22;;;12.33;46.41
51081;BME280;37130;55.670;37.596;2022-10-16T11:41:59;100824.91;;;12.22;46.41
51081;BME280;37130;55.670;37.596;2022-10-16T11:46:53;100828.34;;;11.99;46.60
51081;BME280;37130;55.670;37.596;2022-10-16T11:49:45;100815.03;;;12.01;46.38
51081;BME280;37130;55.670;37.596;2022-10-16T11:54:47;100820.94;;;12.09;46.57
51081;BME280;37130;55.670;37.596;2022-10-16T11:57:20;100826.41;;;12.04;46.81
51081;BME280;37130;55.670;37.596;2022-10-16T12:04:58;100821.69;;;11.86;46.65
51081;BME280;37130;55.670;37.596;2022-10-16T12:07:36;100822.00;;;11.77;46.77
51081;BME280;37130;55.670;37.596;2022-10-16T12:10:23;100822.09;;;11.74;46.85
51081;BME280;37130;55.670;37.596;2022-10-16T12:12:53;100816.78;;;11.74;46.81
51081;BME280;37130;55.670;37.596;2022-10-16T12:18:24;100822.97;;;11.74;46.95
51081;BME280;37130;55.670;37.596;2022-10-16T12:20:57;100815.84;;;11.75;47.04
51081;BME280;37130;55.670;37.596;2022-10-16T12:23:27;100820.25;;;11.76;47.54
51081;BME280;37130;55.670;37.596;2022-10-16T12:25:58;100813.16;;;11.76;47.33
51081;BME280;37130;55.670;37.596;2022-10-16T12:28:26;100812.25;;;11.77;46.94
51081;BME280;37130;55.670;37.596;2022-10-16T12:35:51;100795.56;;;11.74;47.39
51081;BME280;37130;55.670;37.596;2022-10-16T12:38:20;100791.97;;;11.75;47.07
51081;BME280;37130;55.670;37.596;2022-10-16T12:41:23;100797.38;;;11.72;47.38
51081;BME280;37130;55.670;37.596;2022-10-16T12:43:42;100800.16;;;11.69;47.42
51081;BME280;37130;55.670;37.596;2022-10-16T12:48:37;100803.66;;;11.69;47.45
51081;BME280;37130;55.670;37.596;2022-10-16T12:54:29;100801.25;;;11.61;47.93
51081;BME280;37130;55.670;37.596;2022-10-16T13:12:24;100792.94;;;11.46;47.81
51081;BME280;37130;55.670;37.596;2022-10-16T13:23:23;100798.63;;;11.33;48.21
51081;BME280;37130;55.670;37.596;2022-10-16T13:25:46;100800.53;;;11.28;48.37
51081;BME280;37130;55.670;37.596;2022-10-16T13:28:15;100799.78;;;11.25;48.35
51081;BME280;37130;55.670;37.596;2022-10-16T13:30:51;100793.66;;;11.23;48.28
51081;BME280;37130;55.670;37.596;2022-10-16T13:36:04;100791.22;;;11.15;48.99
51081;BME280;37130;55.670;37.596;2022-10-16T13:38:35;100796.63;;;11.12;48.55
51081;BME280;37130;55.670;37.596;2022-10-16T13:41:03;100805.69;;;11.05;48.89
51081;BME280;37130;55.670;37.596;2022-10-16T13:43:32;100801.44;;;10.99;48.57
51081;BME280;37130;55.670;37.596;2022-10-16T13:46:02;100797.19;;;10.93;49.21
51081;BME280;37130;55.670;37.596;2022-10-16T13:48:30;100800.06;;;10.86;48.99
51081;BME280;37130;55.670;37.596;2022-10-16T13:50:58;100802.91;;;10.80;49.34
51081;BME280;37130;55.670;37.596;2022-10-16T13:53:25;100796.88;;;10.74;49.33
51081;BME280;37130;55.670;37.596;2022-10-16T13:55:53;100795.28;;;10.69;49.84
51081;BME280;37130;55.670;37.596;2022-10-16T13:58:20;100790.09;;;10.64;49.71
51081;BME280;37130;55.670;37.596;2022-10-16T14:03:40;100793.19;;;10.49;49.49
51081;BME280;37130;55.670;37.596;2022-10-16T14:06:12;100789.03;;;10.39;49.31
51081;BME280;37130;55.670;37.596;2022-10-16T14:08:42;100787.53;;;10.30;49.70
51081;BME280;37130;55.670;37.596;2022-10-16T14:11:10;100788.47;;;10.26;49.68
51081;BME280;37130;55.670;37.596;2022-10-16T14:13:38;100783.28;;;10.23;50.08
51081;BME280;37130;55.670;37.596;2022-10-16T14:16:07;100786.91;;;10.19;50.42
51081;BME280;37130;55.670;37.596;2022-10-16T14:18:35;100799.34;;;10.15;50.84
51081;BME280;37130;55.670;37.596;2022-10-16T14:21:05;100793.31;;;10.10;50.86
51081;BME280;37130;55.670;37.596;2022-10-16T14:23:37;100787.34;;;10.03;51.53
51081;BME280;37130;55.670;37.596;2022-10-16T14:28:35;100795.56;;;9.91;50.89
51081;BME280;37130;55.670;37.596;2022-10-16T14:31:13;100790.41;;;9.86;51.46
51081;BME280;37130;55.670;37.596;2022-10-16T14:33:48;100793.13;;;9.83;51.75
51081;BME280;37130;55.670;37.596;2022-10-16T14:36:15;100796.75;;;9.79;51.50
51081;BME280;37130;55.670;37.596;2022-10-16T14:39:06;100793.31;;;9.76;51.82
51081;BME280;37130;55.670;37.596;2022-10-16T14:41:43;100795.19;;;9.72;51.90
51081;BME280;37130;55.670;37.596;2022-10-16T14:44:11;100789.94;;;9.69;51.88
51081;BME280;37130;55.670;37.596;2022-10-16T14:46:39;100797.19;;;9.61;52.46
51081;BME280;37130;55.670;37.596;2022-10-16T14:51:38;100798.31;;;9.52;52.81
51081;BME280;37130;55.670;37.596;2022-10-16T14:54:08;100796.59;;;9.50;52.86
51081;BME280;37130;55.670;37.596;2022-10-16T14:56:41;100802.84;;;9.46;52.72
51081;BME280;37130;55.670;37.596;2022-10-16T14:59:16;100798.50;;;9.43;52.97
51081;BME280;37130;55.670;37.596;2022-10-16T15:01:45;100802.16;;;9.37;53.03
51081;BME280;37130;55.670;37.596;2022-10-16T15:04:12;100801.38;;;9.34;52.77
51081;BME280;37130;55.670;37.596;2022-10-16T15:06:40;100804.97;;;9.30;53.28
51081;BME280;37130;55.670;37.596;2022-10-16T15:09:07;100802.41;;;9.27;53.31
51081;BME280;37130;55.670;37.596;2022-10-16T15:11:35;100804.22;;;9.25;53.28
51081;BME280;37130;55.670;37.596;2022-10-16T15:14:02;100804.28;;;9.21;53.58
51081;BME280;37130;55.670;37.596;2022-10-16T15:16:30;100802.66;;;9.17;53.33
51081;BME280;37130;55.670;37.596;2022-10-16T15:18:58;100795.66;;;9.13;53.38